createdAt,value
2022-10-16T00:13:06.534Z,98869.85
2022-10-16T00:18:08.326Z,98867.91
2022-10-16T00:23:11.643Z,98862.34
2022-10-16T00:28:13.707Z,98860.36
2022-10-16T00:33:15.593Z,98866.38
2022-10-16T00:38:18.276Z,98863.22
2022-10-16T00:43:39.525Z,98865.25
2022-10-16T00:48:48.733Z,98861.91
2022-10-16T00:54:09.263Z,98856.45
2022-10-16T00:59:27.343Z,98853.31
2022-10-16T01:04:35.588Z,98854.58
2022-10-16T01:09:48.428Z,98856.38
2022-10-16T01:15:15.830Z,98861.83
2022-10-16T01:20:22.436Z,98862.95
2022-10-16T01:25:38.200Z,98868.66
2022-10-16T01:30:43.076Z,98863.98
2022-10-16T01:35:53.239Z,98856.46
2022-10-16T01:41:02.328Z,98857.13
2022-10-16T01:46:04.917Z,98860.52
2022-10-16T01:51:19.329Z,98862.91
2022-10-16T01:56:23.756Z,98867.39
2022-10-16T02:01:30.736Z,98877.30
2022-10-16T02:06:33.130Z,98883.23
2022-10-16T02:11:34.903Z,98886.12
2022-10-16T02:16:43.049Z,98888.47
2022-10-16T02:21:57.454Z,98892.34
2022-10-16T02:27:06.755Z,98895.29
2022-10-16T02:32:11.368Z,98892.11
2022-10-16T02:37:13.731Z,98880.23
2022-10-16T02:42:16.420Z,98881.41
2022-10-16T02:47:18.345Z,98881.98
2022-10-16T02:52:20.204Z,98879.57
2022-10-16T02:57:22.196Z,98880.43
2022-10-16T03:02:24.284Z,98887.95
2022-10-16T03:07:26.697Z,98884.96
2022-10-16T03:12:28.869Z,98893.04
2022-10-16T03:17:32.530Z,98893.77
2022-10-16T03:22:34.448Z,98893.90
2022-10-16T03:27:36.540Z,98901.05
2022-10-16T03:32:50.725Z,98905.79
2022-10-16T03:37:53.048Z,98914.30
2022-10-16T03:42:58.412Z,98915.83
2022-10-16T03:48:00.292Z,98915.13
2022-10-16T03:53:02.269Z,98915.27
2022-10-16T03:58:04.383Z,98917.96
2022-10-16T04:03:18.717Z,98915.40
2022-10-16T04:08:20.600Z,98918.93
2022-10-16T04:13:22.817Z,98920.40
2022-10-16T04:18:24.832Z,98925.52
2022-10-16T04:23:26.633Z,98926.95
2022-10-16T04:28:28.928Z,98928.52
2022-10-16T04:33:31.035Z,98928.50
2022-10-16T04:38:33.023Z,98931.13
2022-10-16T04:43:35.902Z,98939.02
2022-10-16T04:48:37.809Z,98938.92
2022-10-16T04:53:39.626Z,98941.59
2022-10-16T04:58:47.685Z,98951.05
2022-10-16T05:04:03.309Z,98956.55
2022-10-16T05:09:06.154Z,98958.73
2022-10-16T05:14:08.083Z,98965.73
2022-10-16T05:24:31.852Z,98976.50
2022-10-16T05:29:33.784Z,98973.23
2022-10-16T05:34:35.760Z,98980.45
2022-10-16T05:39:38.247Z,98980.41
2022-10-16T05:44:40.328Z,98980.24
2022-10-16T05:49:49.708Z,98985.96
2022-10-16T05:54:58.072Z,98996.56
2022-10-16T06:00:00.304Z,99000.21
2022-10-16T06:05:02.154Z,99009.46
2022-10-16T06:10:05.431Z,99013.63
2022-10-16T06:15:07.986Z,99018.48
2022-10-16T06:20:10.071Z,99023.52
2022-10-16T06:25:11.822Z,99031.88
2022-10-16T06:30:14.840Z,99034.17
2022-10-16T06:35:41.714Z,99049.58
2022-10-16T06:40:54.925Z,99059.02
2022-10-16T06:46:02.413Z,99065.77
2022-10-16T06:51:13.454Z,99056.14
2022-10-16T06:56:21.363Z,99053.67
2022-10-16T07:01:24.874Z,99047.98
2022-10-16T07:06:28.163Z,99056.58
2022-10-16T07:11:30.264Z,99059.84
2022-10-16T07:16:33.900Z,99062.83
2022-10-16T07:21:36.999Z,99071.93
2022-10-16T07:26:40.314Z,99077.55
2022-10-16T07:31:43.581Z,99084.34
2022-10-16T07:36:45.568Z,99089.42
2022-10-16T07:41:47.433Z,99091.31
2022-10-16T07:47:03.103Z,99091.91
2022-10-16T07:52:05.068Z,99091.06
2022-10-16T07:57:06.820Z,99093.97
2022-10-16T08:02:08.867Z,99091.12
2022-10-16T08:07:10.774Z,99091.08
2022-10-16T08:12:12.667Z,99092.29
2022-10-16T08:17:15.646Z,99095.20
2022-10-16T08:22:17.730Z,99102.09
2022-10-16T08:27:19.581Z,99107.15
2022-10-16T08:32:24.020Z,99110.41
2022-10-16T08:37:33.542Z,99112.17
2022-10-16T08:42:47.912Z,99112.01
2022-10-16T08:48:01.955Z,99112.45
2022-10-16T08:53:06.157Z,99115.14
2022-10-16T08:58:28.830Z,99112.67
2022-10-16T09:04:00.332Z,99113.54
2022-10-16T09:09:26.890Z,99116.39
2022-10-16T09:14:50.016Z,99119.90
2022-10-16T09:20:11.585Z,99125.47
2022-10-16T09:25:21.320Z,99127.58
2022-10-16T09:30:24.172Z,99133.60
2022-10-16T09:35:36.646Z,99137.64
2022-10-16T09:40:42.740Z,99139.04
2022-10-16T09:45:55.271Z,99144.38
2022-10-16T09:51:03.336Z,99139.23
2022-10-16T09:56:10.372Z,99137.40
2022-10-16T10:01:16.597Z,99136.59
2022-10-16T10:06:29.279Z,99147.04
2022-10-16T10:11:50.645Z,99149.25
2022-10-16T10:17:02.562Z,99155.27
2022-10-16T10:22:19.762Z,99155.20
2022-10-16T10:27:24.927Z,99158.86
2022-10-16T10:32:39.058Z,99157.26
2022-10-16T10:38:04.650Z,99154.30
2022-10-16T10:43:26.396Z,99146.30
2022-10-16T10:48:35.324Z,99149.86
2022-10-16T10:53:43.251Z,99152.59
2022-10-16T10:59:11.450Z,99151.81
2022-10-16T11:04:40.349Z,99142.33
2022-10-16T11:10:14.371Z,99147.91
2022-10-16T11:15:30.027Z,99154.25
2022-10-16T11:20:41.234Z,99150.25
2022-10-16T11:25:45.378Z,99144.98
2022-10-16T11:30:52.865Z,99151.05
2022-10-16T11:36:00.318Z,99154.33
2022-10-16T11:41:16.624Z,99149.04
2022-10-16T11:46:23.083Z,99148.52
2022-10-16T11:51:37.989Z,99150.95
2022-10-16T11:56:42.812Z,99157.45
2022-10-16T12:02:07.817Z,99166.14
2022-10-16T12:07:25.728Z,99167.14
2022-10-16T12:12:37.367Z,99176.81
2022-10-16T12:17:39.862Z,99182.74
2022-10-16T12:22:49.337Z,99182.20
2022-10-16T12:28:19.390Z,99183.33
2022-10-16T12:33:27.571Z,99181.48
2022-10-16T12:38:55.709Z,99180.27
2022-10-16T12:43:59.618Z,99181.77
2022-10-16T12:49:25.589Z,99183.09
2022-10-16T12:54:38.864Z,99185.72
2022-10-16T12:59:49.717Z,99180.98
2022-10-16T13:05:10.214Z,99187.05
2022-10-16T13:10:36.873Z,99188.79
2022-10-16T13:15:50.558Z,99189.08
2022-10-16T13:21:07.840Z,99187.98
2022-10-16T13:26:22.756Z,99194.73
2022-10-16T13:31:26.242Z,99196.21
2022-10-16T13:36:32.002Z,99189.09
2022-10-16T13:41:33.865Z,99180.71
2022-10-16T13:46:35.659Z,99180.77
2022-10-16T13:51:37.714Z,99172.27
2022-10-16T13:56:41.269Z,99168.41
2022-10-16T14:01:55.288Z,99182.20
2022-10-16T14:06:57.155Z,99197.42
2022-10-16T14:12:12.560Z,99197.55
2022-10-16T14:17:33.775Z,99200.64
2022-10-16T14:22:47.672Z,99202.44
2022-10-16T14:33:27.697Z,99212.46
2022-10-16T14:38:30.338Z,99215.81
2022-10-16T14:43:37.618Z,99219.59
2022-10-16T14:48:43.947Z,99229.06
2022-10-16T14:53:46.434Z,99236.91
2022-10-16T14:58:50.770Z,99231.80
2022-10-16T15:03:54.931Z,99221.46
2022-10-16T15:08:56.998Z,99226.19
2022-10-16T15:13:59.030Z,99228.12
2022-10-16T15:19:07.215Z,99231.59
2022-10-16T15:24:16.506Z,99234.80
2022-10-16T15:29:21.284Z,99249.44
2022-10-16T15:34:23.110Z,99253.77
2022-10-16T15:39:24.957Z,99255.02
2022-10-16T15:44:30.994Z,99256.65
2022-10-16T15:49:32.993Z,99258.61
2022-10-16T15:54:35.073Z,99266.04
2022-10-16T15:59:36.865Z,99270.63
2022-10-16T16:04:43.857Z,99264.84
2022-10-16T16:09:46.682Z,99271.27
2022-10-16T16:14:50.135Z,99270.02
2022-10-16T16:19:52.345Z,99276.99
2022-10-16T16:24:54.530Z,99283.03
2022-10-16T16:29:57.022Z,99292.01
2022-10-16T16:34:58.773Z,99308.98
2022-10-16T16:40:00.681Z,99318.30
2022-10-16T16:45:02.496Z,99332.27
2022-10-16T16:50:06.003Z,99339.49
2022-10-16T16:55:14.094Z,99343.58
2022-10-16T17:00:16.164Z,99343.79
2022-10-16T17:05:19.055Z,99349.14
2022-10-16T17:10:21.093Z,99355.52
2022-10-16T17:15:22.933Z,99366.19
2022-10-16T17:20:39.792Z,99371.91
2022-10-16T17:25:42.460Z,99380.18
2022-10-16T17:30:44.720Z,99382.97
2022-10-16T17:35:47.379Z,99389.49
2022-10-16T17:40:49.190Z,99397.55
2022-10-16T17:45:51.016Z,99407.72
2022-10-16T17:50:52.954Z,99413.05
2022-10-16T17:55:59.333Z,99413.55
2022-10-16T18:01:02.158Z,99412.33
2022-10-16T18:06:04.941Z,99411.95
2022-10-16T18:11:06.723Z,99416.57
2022-10-16T18:16:12.491Z,99419.98
2022-10-16T18:21:18.176Z,99426.73
2022-10-16T18:26:21.322Z,99440.20
2022-10-16T18:31:26.297Z,99445.23
2022-10-16T18:36:30.893Z,99442.92
2022-10-16T18:41:32.842Z,99444.34
2022-10-16T18:46:34.632Z,99451.48
2022-10-16T18:51:40.239Z,99448.98
2022-10-16T18:56:42.337Z,99458.86
2022-10-16T19:01:44.449Z,99470.27
2022-10-16T19:06:49.497Z,99470.62
2022-10-16T19:16:54.330Z,99476.34
2022-10-16T19:22:11.196Z,99484.05
2022-10-16T19:27:16.709Z,99499.48
2022-10-16T19:32:18.491Z,99510.27
2022-10-16T19:37:25.744Z,99511.80
2022-10-16T19:42:27.768Z,99509.16
2022-10-16T19:47:31.302Z,99517.21
2022-10-16T19:52:34.277Z,99513.58
2022-10-16T19:57:40.504Z,99516.23
2022-10-16T20:02:42.501Z,99518.80
2022-10-16T20:07:44.266Z,99520.52
2022-10-16T20:12:46.180Z,99522.63
2022-10-16T20:17:48.314Z,99532.09
2022-10-16T20:22:50.175Z,99538.15
2022-10-16T20:27:52.081Z,99534.19
2022-10-16T20:32:56.989Z,99538.70
2022-10-16T20:38:18.781Z,99549.36
2022-10-16T20:43:35.458Z,99552.11
2022-10-16T20:48:41.171Z,99558.10
2022-10-16T20:53:44.436Z,99562.80
2022-10-16T20:58:46.622Z,99569.05
2022-10-16T21:03:57.031Z,99572.30
2022-10-16T21:09:03.398Z,99579.55
2022-10-16T21:14:09.216Z,99585.17
2022-10-16T21:19:11.128Z,99588.31
2022-10-16T21:24:16.542Z,99595.95
2022-10-16T21:29:20.193Z,99601.34
2022-10-16T21:34:22.896Z,99606.21
2022-10-16T21:39:24.934Z,99613.40
2022-10-16T21:44:26.848Z,99619.39
2022-10-16T21:49:28.782Z,99625.27
2022-10-16T21:54:30.763Z,99621.85
2022-10-16T21:59:32.713Z,99624.85
2022-10-16T22:04:34.740Z,99620.58
2022-10-16T22:09:36.557Z,99616.83
2022-10-16T22:14:39.776Z,99620.17
2022-10-16T22:19:41.606Z,99618.11
2022-10-16T22:24:43.703Z,99623.75
2022-10-16T22:29:45.622Z,99620.70
2022-10-16T22:34:47.503Z,99622.14
2022-10-16T22:40:09.736Z,99628.87
2022-10-16T22:45:12.022Z,99635.45
2022-10-16T22:50:14.155Z,99648.57
2022-10-16T22:55:16.205Z,99662.45
2022-10-16T23:00:19.765Z,99663.08
2022-10-16T23:05:21.561Z,99659.56
2022-10-16T23:10:27.552Z,99656.58
2022-10-16T23:15:29.921Z,99659.45
2022-10-16T23:20:31.814Z,99658.49
2022-10-16T23:25:33.758Z,99657.69
2022-10-16T23:30:40.716Z,99661.90
2022-10-16T23:35:42.668Z,99668.22
2022-10-16T23:40:44.597Z,99667.56
2022-10-16T23:45:46.442Z,99669.41
2022-10-16T23:50:48.509Z,99673.30
2022-10-16T23:55:50.384Z,99670.31
